Time;durP1;ratioP1;P1;durP2;ratioP2;P2;SDS_P1;SDS_P2;PMS_P1;PMS_P2;Temp;Humidity;BMP_temperature;BMP_pressure;BME280_temperature;BME280_humidity;BME280_pressure;Samples;Min_cycle;Max_cycle;Signal;HPM_P1;HPM_P2
2023/06/04 00:02:13;;;;;;;34.35;31.55;;;18.30;99.90;;;;;;5205476;28;20029;-69
2023/06/04 00:04:44;;;;;;;34.75;31.48;;;18.40;99.90;;;;;;5205530;28;20091;-68
2023/06/04 00:07:14;;;;;;;36.97;33.58;;;18.40;99.90;;;;;;5205357;28;20041;-69
2023/06/04 00:09:46;;;;;;;34.88;32.03;;;18.40;99.90;;;;;;5205281;28;20021;-69
2023/06/04 00:12:17;;;;;;;36.88;33.70;;;18.40;99.90;;;;;;5205395;28;20017;-68
2023/06/04 00:14:48;;;;;;;35.33;32.33;;;18.40;99.90;;;;;;5204964;28;20107;-68
2023/06/04 00:17:19;;;;;;;35.63;32.58;;;18.40;99.90;;;;;;5205416;28;20029;-69
2023/06/04 00:19:50;;;;;;;37.08;34.17;;;18.50;99.90;;;;;;5205314;28;20052;-68
2023/06/04 00:22:21;;;;;;;38.30;34.80;;;18.40;99.90;;;;;;5205450;28;20470;-68
2023/06/04 00:24:52;;;;;;;37.90;34.45;;;18.50;99.90;;;;;;5204356;28;20073;-69
2023/06/04 00:27:22;;;;;;;38.20;34.90;;;18.50;99.90;;;;;;5205560;28;20053;-68
2023/06/04 00:29:53;;;;;;;38.33;34.95;;;18.60;99.90;;;;;;5205396;28;20041;-68
2023/06/04 00:32:24;;;;;;;38.15;34.95;;;18.60;99.90;;;;;;5205386;28;20025;-68
2023/06/04 00:34:57;;;;;;;38.78;35.53;;;18.60;99.90;;;;;;5205186;28;20599;-68
2023/06/04 00:37:29;;;;;;;41.20;37.38;;;18.60;99.90;;;;;;5205244;28;20029;-69
2023/06/04 00:40:00;;;;;;;41.03;37.10;;;18.60;99.90;;;;;;5205294;28;20021;-68
2023/06/04 00:42:31;;;;;;;37.03;33.72;;;18.60;99.90;;;;;;5206638;28;20052;-68
2023/06/04 00:45:03;;;;;;;38.17;34.88;;;18.60;99.90;;;;;;5208678;28;20380;-69
2023/06/04 00:47:34;;;;;;;41.53;37.60;;;18.60;99.90;;;;;;5208980;28;20485;-68
2023/06/04 00:50:06;;;;;;;40.40;36.90;;;18.70;99.90;;;;;;5208751;28;20037;-68
2023/06/04 00:52:38;;;;;;;38.17;34.90;;;18.60;99.90;;;;;;5208994;28;20031;-68
2023/06/04 00:55:10;;;;;;;35.22;32.30;;;18.60;99.90;;;;;;5208648;28;20032;-69
2023/06/04 00:57:41;;;;;;;35.67;32.85;;;18.70;99.90;;;;;;5208679;28;20033;-68
2023/06/04 01:00:13;;;;;;;33.63;30.73;;;18.70;99.90;;;;;;5208666;28;20075;-68
2023/06/04 01:02:51;;;;;;;35.45;32.38;;;18.60;99.90;;;;;;5208642;28;20021;-68
2023/06/04 01:05:36;;;;;;;35.47;32.42;;;18.60;99.90;;;;;;5208532;28;20025;-68
2023/06/04 01:08:08;;;;;;;35.45;32.22;;;18.60;99.90;;;;;;5207309;28;20055;-68
2023/06/04 01:10:52;;;;;;;34.72;31.80;;;18.70;99.90;;;;;;5208409;28;20394;-69
2023/06/04 01:13:25;;;;;;;34.70;31.55;;;18.70;99.90;;;;;;5208341;28;20060;-68
2023/06/04 01:15:56;;;;;;;32.65;29.77;;;18.70;99.90;;;;;;5208051;28;20537;-68
2023/06/04 01:18:27;;;;;;;36.08;33.10;;;18.80;99.90;;;;;;5208088;28;20104;-68
2023/06/04 01:21:07;;;;;;;36.15;33.05;;;18.70;99.90;;;;;;5208125;28;20032;-67
2023/06/04 01:23:58;;;;;;;31.00;28.55;;;18.70;99.90;;;;;;5208213;28;20416;-68
2023/06/04 01:26:31;;;;;;;34.58;31.17;;;18.60;99.90;;;;;;5208276;28;20031;-68
2023/06/04 01:29:02;;;;;;;34.05;31.05;;;18.70;99.90;;;;;;5208274;28;20025;-68
2023/06/04 01:31:33;;;;;;;33.47;30.65;;;18.60;99.90;;;;;;5208090;28;20104;-68
2023/06/04 01:34:07;;;;;;;34.97;32.00;;;18.70;99.90;;;;;;5190448;28;20028;-68
2023/06/04 01:36:38;;;;;;;33.83;31.00;;;18.70;99.90;;;;;;5208448;28;20032;-68
2023/06/04 01:39:10;;;;;;;34.17;31.42;;;18.70;99.90;;;;;;5208155;28;20108;-68
2023/06/04 01:41:40;;;;;;;32.80;29.90;;;18.70;99.90;;;;;;5208093;28;20021;-68
2023/06/04 01:44:11;;;;;;;34.67;31.67;;;18.70;99.90;;;;;;5207683;28;20485;-68
2023/06/04 01:46:42;;;;;;;34.53;31.55;;;18.70;99.90;;;;;;5207890;28;20472;-68
2023/06/04 01:49:13;;;;;;;34.72;31.77;;;18.70;99.90;;;;;;5207866;28;20022;-68
2023/06/04 01:51:44;;;;;;;35.42;32.22;;;18.70;99.90;;;;;;5207647;28;20462;-68
2023/06/04 01:54:16;;;;;;;35.58;32.67;;;18.80;99.90;;;;;;5206862;28;20470;-68
2023/06/04 01:56:48;;;;;;;35.78;32.88;;;18.80;99.90;;;;;;5207692;28;20540;-68
2023/06/04 01:59:19;;;;;;;35.75;32.53;;;18.80;99.90;;;;;;5207761;28;20778;-68
2023/06/04 02:01:50;;;;;;;34.10;31.45;;;18.80;99.90;;;;;;5207616;28;20108;-68
2023/06/04 02:04:21;;;;;;;35.40;32.63;;;18.80;99.90;;;;;;5207402;28;20380;-68
2023/06/04 02:06:51;;;;;;;35.10;32.17;;;18.80;99.90;;;;;;5207414;28;20025;-68
2023/06/04 02:09:23;;;;;;;35.90;32.53;;;18.80;99.90;;;;;;5207405;28;20056;-68
2023/06/04 02:11:53;;;;;;;35.03;32.08;;;18.80;99.90;;;;;;5207159;28;20137;-68
2023/06/04 02:14:24;;;;;;;35.13;32.17;;;18.90;99.90;;;;;;5206771;28;20121;-68
2023/06/04 02:16:57;;;;;;;32.92;30.38;;;18.90;99.90;;;;;;5205880;28;20047;-68
2023/06/04 02:19:28;;;;;;;35.25;32.00;;;18.90;99.90;;;;;;5207086;28;20057;-68
2023/06/04 02:21:59;;;;;;;33.42;30.63;;;18.90;99.90;;;;;;5206973;28;20049;-68
2023/06/04 02:24:30;;;;;;;34.25;31.38;;;18.90;99.90;;;;;;5207166;28;20504;-68
2023/06/04 02:27:01;;;;;;;32.50;30.10;;;18.90;99.90;;;;;;5206915;28;20041;-70
2023/06/04 02:29:32;;;;;;;33.30;30.58;;;18.90;99.90;;;;;;5207026;28;20033;-69
2023/06/04 02:32:03;;;;;;;33.17;30.63;;;18.90;99.90;;;;;;5206827;28;20389;-68
2023/06/04 02:34:34;;;;;;;32.08;29.45;;;18.90;99.90;;;;;;5206317;28;20033;-69
2023/06/04 02:37:06;;;;;;;32.13;29.77;;;19.00;99.90;;;;;;5206775;28;20156;-68
2023/06/04 02:39:36;;;;;;;32.50;29.85;;;18.90;99.90;;;;;;5206766;28;20025;-68
2023/06/04 02:42:07;;;;;;;32.45;29.88;;;18.90;99.90;;;;;;5206656;28;20076;-68
2023/06/04 02:44:38;;;;;;;32.00;29.35;;;18.80;99.90;;;;;;5206541;28;20382;-69
2023/06/04 02:47:09;;;;;;;30.60;27.90;;;18.90;99.90;;;;;;5206704;28;20022;-67
2023/06/04 02:49:40;;;;;;;29.42;27.13;;;18.90;99.90;;;;;;5206554;28;20041;-68
2023/06/04 02:52:11;;;;;;;31.70;29.38;;;18.90;99.90;;;;;;5206866;28;20026;-68
2023/06/04 02:54:42;;;;;;;30.05;27.65;;;19.00;99.90;;;;;;5206442;28;20028;-68
2023/06/04 02:57:12;;;;;;;27.48;25.48;;;18.90;99.90;;;;;;5206477;28;20048;-69
2023/06/04 02:59:43;;;;;;;28.17;26.25;;;18.90;99.90;;;;;;5206506;28;20497;-68
2023/06/04 03:02:14;;;;;;;27.20;25.17;;;18.90;99.90;;;;;;5206356;28;20022;-68
2023/06/04 03:04:47;;;;;;;23.60;21.80;;;18.80;99.90;;;;;;5206438;28;20140;-69
2023/06/04 03:07:22;;;;;;;25.00;23.05;;;18.90;99.90;;;;;;5206394;28;20542;-68
2023/06/04 03:09:53;;;;;;;26.75;24.40;;;18.90;99.90;;;;;;5206160;28;20029;-68
2023/06/04 03:12:24;;;;;;;25.17;23.00;;;18.90;99.90;;;;;;5206281;28;20037;-68
2023/06/04 03:14:55;;;;;;;24.73;22.63;;;18.90;99.90;;;;;;5205576;28;20057;-68
2023/06/04 03:17:26;;;;;;;26.05;23.88;;;18.90;99.90;;;;;;5206168;28;20033;-68
2023/06/04 03:19:57;;;;;;;24.05;22.25;;;18.90;99.90;;;;;;5206045;28;20057;-68
2023/06/04 03:22:28;;;;;;;25.20;23.08;;;19.00;99.90;;;;;;5206004;28;20079;-69
2023/06/04 03:24:59;;;;;;;25.58;23.40;;;19.00;99.90;;;;;;5205935;28;20026;-68
2023/06/04 03:27:32;;;;;;;24.98;23.13;;;19.00;99.90;;;;;;5205931;28;20025;-68
2023/06/04 03:30:03;;;;;;;21.95;20.10;;;19.10;99.90;;;;;;5205803;28;20041;-68
2023/06/04 03:32:35;;;;;;;24.27;22.52;;;19.00;99.90;;;;;;5206021;28;20018;-68
2023/06/04 03:35:06;;;;;;;24.13;22.08;;;19.10;99.90;;;;;;5205801;28;20025;-69
2023/06/04 03:37:37;;;;;;;24.05;21.95;;;19.10;99.90;;;;;;5205846;28;20033;-68
2023/06/04 03:40:08;;;;;;;22.02;20.48;;;19.10;99.90;;;;;;5205791;28;20385;-68
2023/06/04 03:42:39;;;;;;;25.85;23.85;;;19.20;99.90;;;;;;5205852;28;20057;-69
2023/06/04 03:45:10;;;;;;;24.17;22.13;;;19.20;99.90;;;;;;5205457;28;20501;-68
2023/06/04 03:47:41;;;;;;;24.48;22.48;;;19.20;99.90;;;;;;5205692;28;20423;-69
2023/06/04 03:50:12;;;;;;;22.98;21.30;;;19.20;99.90;;;;;;5205572;28;20465;-68
2023/06/04 03:52:42;;;;;;;23.70;21.85;;;19.20;99.90;;;;;;5205651;28;20029;-68
2023/06/04 03:55:13;;;;;;;23.73;21.83;;;19.20;99.90;;;;;;5204194;28;20068;-68
2023/06/04 03:57:44;;;;;;;23.75;21.65;;;19.30;99.90;;;;;;5205999;28;20125;-70
2023/06/04 04:00:15;;;;;;;25.73;23.60;;;19.30;99.90;;;;;;5205765;28;20033;-68
2023/06/04 04:02:48;;;;;;;23.63;21.60;;;19.30;99.90;;;;;;5205855;28;20033;-68
2023/06/04 04:05:19;;;;;;;24.80;23.13;;;19.30;99.90;;;;;;5205996;28;20018;-67
2023/06/04 04:07:49;;;;;;;26.40;24.20;;;19.30;99.90;;;;;;5187961;28;20056;-71
2023/06/04 04:10:21;;;;;;;27.17;24.67;;;19.30;99.90;;;;;;5205533;28;20156;-70
2023/06/04 04:12:54;;;;;;;26.05;24.05;;;19.40;99.90;;;;;;5205571;28;20470;-71
2023/06/04 04:15:25;;;;;;;28.75;26.27;;;19.30;99.90;;;;;;5205144;28;20048;-71
2023/06/04 04:17:56;;;;;;;29.48;27.13;;;19.40;99.90;;;;;;5206567;28;20030;-70
2023/06/04 04:20:27;;;;;;;27.67;25.45;;;19.40;99.90;;;;;;5209495;28;20373;-70
2023/06/04 04:22:58;;;;;;;28.75;26.15;;;19.40;99.90;;;;;;5209431;28;20037;-70
2023/06/04 04:25:29;;;;;;;29.65;26.70;;;19.40;99.90;;;;;;5209431;28;20029;-69
2023/06/04 04:28:00;;;;;;;29.17;26.60;;;19.40;99.90;;;;;;5209423;28;20504;-70
2023/06/04 04:30:33;;;;;;;30.30;27.35;;;19.40;99.90;;;;;;5209150;28;20033;-70
2023/06/04 04:33:07;;;;;;;30.05;27.30;;;19.50;99.90;;;;;;5209177;28;20028;-70
2023/06/04 04:35:39;;;;;;;28.48;25.92;;;19.50;99.90;;;;;;5209126;28;20021;-69
2023/06/04 04:38:11;;;;;;;28.48;25.98;;;19.50;99.90;;;;;;5209110;28;20025;-70
2023/06/04 04:40:42;;;;;;;30.45;27.88;;;19.50;99.90;;;;;;5209159;28;20068;-69
2023/06/04 04:43:12;;;;;;;29.00;26.50;;;19.50;99.90;;;;;;5208934;28;20053;-69
2023/06/04 04:45:43;;;;;;;32.38;29.25;;;19.50;99.90;;;;;;5208819;28;20030;-70
2023/06/04 04:48:14;;;;;;;32.25;28.73;;;19.50;99.90;;;;;;5208983;28;20033;-69
2023/06/04 04:50:45;;;;;;;31.05;28.35;;;19.50;99.90;;;;;;5208700;28;20091;-70
2023/06/04 04:53:16;;;;;;;30.00;27.40;;;19.50;99.90;;;;;;5208911;28;20075;-69
2023/06/04 04:55:47;;;;;;;30.98;27.77;;;19.50;99.90;;;;;;5208746;28;20033;-69
2023/06/04 04:58:18;;;;;;;34.97;31.70;;;19.60;99.90;;;;;;5208768;28;20092;-69
2023/06/04 05:00:49;;;;;;;33.80;30.42;;;19.60;99.90;;;;;;5208559;28;20105;-69
2023/06/04 05:03:20;;;;;;;33.15;30.05;;;19.60;99.90;;;;;;5190749;28;20034;-70
2023/06/04 05:05:51;;;;;;;34.13;30.95;;;19.60;99.90;;;;;;5208563;28;20040;-69
2023/06/04 05:08:22;;;;;;;34.70;31.33;;;19.70;99.90;;;;;;5208380;28;20465;-69
2023/06/04 05:10:53;;;;;;;34.40;31.20;;;19.70;99.90;;;;;;5190590;28;20041;-69
2023/06/04 05:13:24;;;;;;;32.00;29.00;;;19.70;99.90;;;;;;5208423;28;20128;-69
2023/06/04 05:15:55;;;;;;;36.35;32.83;;;19.70;99.90;;;;;;5208052;28;20100;-70
2023/06/04 05:18:28;;;;;;;37.33;33.42;;;19.80;99.90;;;;;;5208311;28;20469;-70
2023/06/04 05:21:00;;;;;;;33.58;30.10;;;19.80;99.90;;;;;;5208231;28;20528;-70
2023/06/04 05:23:34;;;;;;;34.75;31.05;;;19.80;99.90;;;;;;5208414;28;20025;-69
2023/06/04 05:26:05;;;;;;;34.55;31.27;;;19.80;99.90;;;;;;5208215;28;20025;-69
2023/06/04 05:28:36;;;;;;;38.50;34.97;;;19.90;99.90;;;;;;5207112;28;20500;-70
2023/06/04 05:31:08;;;;;;;36.38;32.90;;;20.00;99.90;;;;;;5208002;28;20065;-69
2023/06/04 05:33:39;;;;;;;38.65;35.03;;;20.00;99.90;;;;;;5190258;28;20400;-70
2023/06/04 05:36:10;;;;;;;36.13;32.63;;;20.00;99.90;;;;;;5208004;28;20033;-70
2023/06/04 05:38:43;;;;;;;38.25;34.28;;;20.00;99.90;;;;;;5208060;28;20434;-70
2023/06/04 05:41:14;;;;;;;37.30;33.63;;;20.00;99.90;;;;;;5207845;28;20096;-70
2023/06/04 05:43:45;;;;;;;37.63;33.72;;;20.00;99.90;;;;;;5207720;28;20561;-69
2023/06/04 05:46:16;;;;;;;38.28;34.53;;;20.00;99.90;;;;;;5207790;28;20022;-70
2023/06/04 05:48:47;;;;;;;38.67;34.97;;;19.90;99.90;;;;;;5207762;28;20018;-69
2023/06/04 05:51:18;;;;;;;38.30;34.75;;;19.90;99.90;;;;;;5207625;28;20072;-69
2023/06/04 05:53:48;;;;;;;39.50;35.40;;;19.90;99.90;;;;;;5189870;28;20037;-69
2023/06/04 05:56:20;;;;;;;38.22;34.47;;;19.90;99.90;;;;;;5207572;28;20029;-69
2023/06/04 05:58:52;;;;;;;39.33;35.50;;;19.80;99.90;;;;;;5189904;28;20071;-70
2023/06/04 06:01:23;;;;;;;38.33;34.65;;;19.80;99.90;;;;;;5207410;28;20115;-69
2023/06/04 06:03:55;;;;;;;38.53;35.03;;;19.80;99.90;;;;;;5207367;28;20026;-69
2023/06/04 06:06:26;;;;;;;35.70;32.08;;;19.70;99.90;;;;;;5207429;28;20018;-70
2023/06/04 06:08:58;;;;;;;38.28;34.35;;;19.80;99.90;;;;;;5207226;28;20389;-69
2023/06/04 06:11:29;;;;;;;35.33;31.92;;;19.70;99.90;;;;;;5207161;28;20099;-70
2023/06/04 06:14:00;;;;;;;36.72;33.03;;;19.70;99.90;;;;;;5206726;28;20381;-69
2023/06/04 06:16:32;;;;;;;35.65;32.13;;;19.70;99.90;;;;;;5207012;28;20033;-70
2023/06/04 06:19:03;;;;;;;35.95;32.25;;;19.70;99.90;;;;;;5206983;28;20021;-69
2023/06/04 06:21:34;;;;;;;37.33;33.50;;;19.60;99.90;;;;;;5206900;28;20030;-70
2023/06/04 06:24:05;;;;;;;35.92;32.50;;;19.60;99.90;;;;;;5206822;28;20496;-70
2023/06/04 06:26:37;;;;;;;35.13;31.77;;;19.60;99.90;;;;;;5207163;28;20124;-70
2023/06/04 06:29:07;;;;;;;39.05;33.55;;;19.70;99.90;;;;;;5207158;28;20018;-69
2023/06/04 06:31:38;;;;;;;35.50;31.60;;;19.60;99.90;;;;;;5206820;28;20044;-69
2023/06/04 06:34:09;;;;;;;34.58;31.45;;;19.60;99.90;;;;;;5206873;28;20024;-70
2023/06/04 06:36:40;;;;;;;33.53;30.13;;;19.60;99.90;;;;;;5207148;28;20037;-70
2023/06/04 06:39:11;;;;;;;32.83;29.83;;;19.50;99.90;;;;;;5189030;28;20116;-71
2023/06/04 06:41:42;;;;;;;32.70;29.55;;;19.60;99.90;;;;;;5204267;28;20024;-70
2023/06/04 06:44:13;;;;;;;34.95;31.88;;;19.60;99.90;;;;;;5206471;28;20091;-69
2023/06/04 06:46:44;;;;;;;33.40;30.60;;;19.60;99.90;;;;;;5206751;28;20509;-70
2023/06/04 06:49:18;;;;;;;31.52;28.60;;;19.60;99.90;;;;;;5204510;28;20163;-70
2023/06/04 06:51:49;;;;;;;32.10;29.00;;;19.50;99.90;;;;;;5197169;28;20120;-70
2023/06/04 06:54:21;;;;;;;32.63;29.73;;;19.50;99.90;;;;;;5200011;28;20151;-69
2023/06/04 06:56:53;;;;;;;31.58;28.52;;;19.50;99.90;;;;;;5206497;28;20029;-70
2023/06/04 06:59:24;;;;;;;31.05;28.17;;;19.50;99.90;;;;;;5199585;28;20021;-69
2023/06/04 07:01:55;;;;;;;33.75;30.60;;;19.50;99.90;;;;;;5190544;28;20130;-70
2023/06/04 07:04:25;;;;;;;32.33;29.08;;;19.50;99.90;;;;;;5185951;28;20054;-69
2023/06/04 07:06:56;;;;;;;32.78;29.70;;;19.50;99.90;;;;;;5201399;28;20025;-69
2023/06/04 07:09:27;;;;;;;31.33;28.35;;;19.50;99.90;;;;;;5206263;28;20060;-69
2023/06/04 07:11:58;;;;;;;31.88;28.80;;;19.50;99.90;;;;;;5206240;28;20045;-69
2023/06/04 07:14:29;;;;;;;32.60;29.73;;;19.50;99.90;;;;;;5205748;28;20048;-69
2023/06/04 07:17:00;;;;;;;32.67;29.55;;;19.50;99.90;;;;;;5206163;28;20040;-70
2023/06/04 07:19:31;;;;;;;33.83;30.48;;;19.50;99.90;;;;;;5205929;28;20100;-69
2023/06/04 07:22:02;;;;;;;32.97;29.52;;;19.50;99.90;;;;;;5205985;28;20512;-68
2023/06/04 07:24:33;;;;;;;31.30;28.23;;;19.50;99.90;;;;;;5202493;28;20021;-69
2023/06/04 07:27:14;;;;;;;31.85;28.75;;;19.30;99.90;;;;;;5197936;28;20371;-69
2023/06/04 07:29:53;;;;;;;30.63;27.67;;;19.40;99.90;;;;;;5193271;28;20474;-70
2023/06/04 07:32:25;;;;;;;28.02;25.25;;;19.50;99.90;;;;;;5196047;28;20092;-70
2023/06/04 07:34:57;;;;;;;28.90;26.05;;;19.50;99.90;;;;;;5197520;28;20053;-70
2023/06/04 07:37:28;;;;;;;30.40;27.70;;;19.70;99.90;;;;;;5202445;28;20104;-68
2023/06/04 07:39:59;;;;;;;29.80;26.95;;;19.60;99.90;;;;;;5204410;28;20129;-68
2023/06/04 07:42:30;;;;;;;30.48;27.30;;;19.50;99.90;;;;;;5205845;28;20106;-69
2023/06/04 07:45:01;;;;;;;27.98;25.27;;;19.70;99.90;;;;;;5205853;28;20080;-67
2023/06/04 07:47:32;;;;;;;26.48;21.77;;;19.60;99.90;;;;;;5205715;28;20108;-68
2023/06/04 07:50:05;;;;;;;25.02;22.40;;;20.00;99.90;;;;;;5205705;28;20114;-68
2023/06/04 07:52:36;;;;;;;23.45;21.10;;;20.10;99.90;;;;;;5207963;28;20033;-68
2023/06/04 07:55:08;;;;;;;26.92;22.30;;;20.00;99.90;;;;;;5210129;28;20025;-68
2023/06/04 07:57:39;;;;;;;26.15;19.90;;;20.00;99.90;;;;;;5192482;28;20044;-68
2023/06/04 08:00:11;;;;;;;22.75;20.50;;;20.10;99.90;;;;;;5210007;28;20470;-69
2023/06/04 08:02:42;;;;;;;24.13;19.77;;;20.20;99.90;;;;;;5209942;28;20401;-68
2023/06/04 08:05:15;;;;;;;26.02;20.50;;;20.10;99.90;;;;;;5209767;28;20021;-68
2023/06/04 08:07:47;;;;;;;23.02;19.70;;;20.10;99.90;;;;;;5209799;28;20041;-68
2023/06/04 08:10:18;;;;;;;24.55;22.15;;;20.20;99.90;;;;;;5209570;28;20041;-69
2023/06/04 08:12:48;;;;;;;28.85;19.90;;;20.10;99.90;;;;;;5209558;28;20037;-68
2023/06/04 08:15:19;;;;;;;22.40;20.15;;;20.20;99.90;;;;;;5209220;28;20103;-68
2023/06/04 08:17:50;;;;;;;22.35;20.05;;;20.30;99.90;;;;;;5209496;28;20163;-69
2023/06/04 08:20:22;;;;;;;26.25;23.05;;;20.50;99.90;;;;;;5208179;28;20029;-68
2023/06/04 08:22:52;;;;;;;25.85;23.20;;;20.50;99.90;;;;;;5209453;28;20025;-68
2023/06/04 08:25:23;;;;;;;25.70;23.42;;;20.30;99.90;;;;;;5209367;28;20493;-68
2023/06/04 08:27:54;;;;;;;27.05;21.92;;;20.20;99.90;;;;;;5209260;28;20028;-68
2023/06/04 08:30:27;;;;;;;26.75;24.10;;;20.00;99.90;;;;;;5209224;28;20038;-69
2023/06/04 08:32:58;;;;;;;31.25;27.73;;;20.30;99.90;;;;;;5209208;28;20120;-69
2023/06/04 08:35:28;;;;;;;29.13;26.38;;;20.10;99.90;;;;;;5207864;28;20100;-69
2023/06/04 08:37:59;;;;;;;30.95;26.05;;;20.10;99.90;;;;;;5207982;28;20485;-68
2023/06/04 08:40:31;;;;;;;28.88;26.15;;;20.40;99.90;;;;;;5207830;28;20078;-69
2023/06/04 08:43:02;;;;;;;22.83;20.52;;;20.40;99.90;;;;;;5208823;28;20029;-69
2023/06/04 08:45:38;;;;;;;22.15;18.88;;;20.30;99.90;;;;;;5208793;28;20037;-68
2023/06/04 08:48:13;;;;;;;22.02;19.63;;;20.20;99.90;;;;;;5207736;28;20080;-68
2023/06/04 08:50:47;;;;;;;24.98;22.27;;;20.30;99.90;;;;;;5207482;28;20367;-68
2023/06/04 08:53:18;;;;;;;31.02;22.60;;;20.30;99.90;;;;;;5208787;28;20028;-68
2023/06/04 08:55:53;;;;;;;24.80;22.23;;;20.30;99.90;;;;;;5208735;28;20029;-68
2023/06/04 08:58:25;;;;;;;26.67;21.77;;;20.30;99.90;;;;;;5208852;28;20021;-69
2023/06/04 09:00:56;;;;;;;24.95;19.88;;;20.30;99.90;;;;;;5208824;28;20021;-69
2023/06/04 09:03:28;;;;;;;26.05;23.23;;;20.40;99.90;;;;;;5206313;28;20025;-69
2023/06/04 09:06:00;;;;;;;26.88;22.10;;;20.30;99.90;;;;;;5208723;28;20036;-68
2023/06/04 09:08:34;;;;;;;25.13;22.52;;;20.30;99.90;;;;;;5208838;28;20025;-69
2023/06/04 09:11:07;;;;;;;25.13;22.63;;;20.20;99.90;;;;;;5208368;28;20033;-69
2023/06/04 09:13:39;;;;;;;29.40;26.65;;;20.20;99.90;;;;;;5208324;28;20470;-69
2023/06/04 09:16:10;;;;;;;27.85;23.55;;;20.20;99.90;;;;;;5207030;28;20516;-69
2023/06/04 09:18:41;;;;;;;27.73;25.02;;;20.30;99.90;;;;;;5208350;28;20029;-69
2023/06/04 09:21:12;;;;;;;28.75;25.70;;;20.20;99.90;;;;;;5208392;28;20369;-69
2023/06/04 09:23:44;;;;;;;28.30;23.85;;;20.30;99.90;;;;;;5208329;28;20025;-69
2023/06/04 09:26:15;;;;;;;26.08;22.83;;;20.20;99.90;;;;;;5208138;28;20120;-69
2023/06/04 09:28:46;;;;;;;31.40;28.35;;;20.30;99.90;;;;;;5208205;28;20104;-68
2023/06/04 09:31:17;;;;;;;29.65;27.05;;;20.30;99.90;;;;;;5208134;28;20037;-69
2023/06/04 09:33:49;;;;;;;31.35;28.30;;;20.10;99.90;;;;;;5208148;28;20079;-69
2023/06/04 09:36:21;;;;;;;27.45;24.77;;;20.00;99.90;;;;;;5208054;28;20029;-69
2023/06/04 09:38:52;;;;;;;27.27;24.48;;;20.00;99.90;;;;;;5208070;28;20473;-69
2023/06/04 09:41:23;;;;;;;29.60;23.92;;;19.80;99.90;;;;;;5207977;28;20028;-69
2023/06/04 09:44:04;;;;;;;27.88;22.75;;;19.70;99.90;;;;;;5207636;28;20156;-69
2023/06/04 09:46:34;;;;;;;27.38;23.70;;;19.80;99.90;;;;;;5207766;28;20029;-69
2023/06/04 09:49:06;;;;;;;24.73;21.98;;;19.90;99.90;;;;;;5207786;28;20381;-69
2023/06/04 09:51:48;;;;;;;26.42;22.17;;;19.70;99.90;;;;;;5207701;28;20030;-69
2023/06/04 09:54:19;;;;;;;31.45;23.17;;;19.80;99.90;;;;;;5207615;28;20195;-69
2023/06/04 09:56:50;;;;;;;28.08;20.63;;;19.80;99.90;;;;;;5207733;28;20589;-69
2023/06/04 09:59:20;;;;;;;27.13;23.38;;;19.70;99.90;;;;;;5207607;28;20032;-69
2023/06/04 10:01:53;;;;;;;27.38;21.90;;;19.70;99.90;;;;;;5207488;28;20030;-69
2023/06/04 10:04:26;;;;;;;27.58;21.42;;;19.70;99.90;;;;;;5207521;28;20377;-69
2023/06/04 10:06:57;;;;;;;33.42;24.08;;;19.70;99.90;;;;;;5207305;28;20465;-69
2023/06/04 10:09:28;;;;;;;33.20;25.08;;;19.70;99.90;;;;;;5207297;28;20029;-69
2023/06/04 10:12:01;;;;;;;24.90;22.00;;;19.70;99.90;;;;;;5207261;28;20033;-69
2023/06/04 10:14:41;;;;;;;25.45;22.60;;;19.60;99.90;;;;;;5206139;28;20037;-69
2023/06/04 10:17:13;;;;;;;27.93;20.53;;;19.60;99.90;;;;;;5207261;28;20112;-69
2023/06/04 10:19:45;;;;;;;23.95;19.70;;;19.60;99.90;;;;;;5207031;28;20018;-69
2023/06/04 10:22:16;;;;;;;28.50;20.23;;;19.60;99.90;;;;;;5204147;28;20025;-69
2023/06/04 10:24:47;;;;;;;29.90;22.23;;;19.70;99.90;;;;;;5198002;28;20025;-69
2023/06/04 10:27:20;;;;;;;33.78;22.75;;;19.70;99.90;;;;;;5201648;28;20026;-69
2023/06/04 10:29:52;;;;;;;27.48;24.63;;;19.80;99.90;;;;;;5205650;28;20017;-70
2023/06/04 10:32:27;;;;;;;31.55;24.60;;;19.70;99.90;;;;;;5207090;28;20037;-69
2023/06/04 10:34:58;;;;;;;26.77;23.85;;;19.70;99.90;;;;;;5189295;28;20029;-70
2023/06/04 10:37:29;;;;;;;27.60;24.58;;;19.80;99.90;;;;;;5206885;28;20709;-69
2023/06/04 10:40:00;;;;;;;26.83;23.98;;;19.70;99.90;;;;;;5206858;28;20418;-69
2023/06/04 10:42:38;;;;;;;35.72;25.45;;;19.60;99.90;;;;;;5204735;28;20223;-69
2023/06/04 10:45:10;;;;;;;29.52;26.83;;;19.60;99.90;;;;;;5185017;28;20034;-69
2023/06/04 10:47:41;;;;;;;28.42;25.67;;;19.50;99.90;;;;;;5186289;28;20029;-69
2023/06/04 10:50:13;;;;;;;26.92;24.40;;;19.40;99.90;;;;;;5186042;28;20021;-69
2023/06/04 10:52:52;;;;;;;28.88;25.85;;;19.40;99.90;;;;;;5186174;28;20029;-69
2023/06/04 10:55:23;;;;;;;26.90;24.23;;;19.40;99.90;;;;;;5185918;28;20022;-69
2023/06/04 10:57:59;;;;;;;27.13;24.33;;;19.40;99.90;;;;;;5168354;28;20096;-69
2023/06/04 11:00:38;;;;;;;26.08;23.15;;;19.40;99.90;;;;;;5186014;28;20464;-70
2023/06/04 11:03:12;;;;;;;30.27;27.13;;;19.40;99.90;;;;;;5192315;28;20048;-69
2023/06/04 11:05:45;;;;;;;29.25;26.42;;;19.40;99.90;;;;;;5201583;28;20029;-69
2023/06/04 11:08:30;;;;;;;30.92;27.67;;;19.30;99.90;;;;;;5201240;28;20036;-68
2023/06/04 11:11:11;;;;;;;28.08;25.25;;;19.30;99.90;;;;;;5201112;28;20081;-69
2023/06/04 11:13:43;;;;;;;27.75;24.58;;;19.30;99.90;;;;;;5201056;28;20079;-68
2023/06/04 11:16:20;;;;;;;28.65;25.67;;;19.30;99.90;;;;;;5201201;28;20045;-69
2023/06/04 11:19:02;;;;;;;29.58;25.88;;;19.30;99.90;;;;;;5201942;28;20087;-70
2023/06/04 11:21:36;;;;;;;30.00;23.13;;;19.40;99.90;;;;;;5200147;28;20152;-69
2023/06/04 11:24:07;;;;;;;27.13;22.75;;;19.40;99.90;;;;;;5191208;28;20062;-69
2023/06/04 11:26:38;;;;;;;30.60;24.23;;;19.20;99.90;;;;;;5200166;28;20072;-68
2023/06/04 11:29:11;;;;;;;34.10;25.92;;;19.10;99.90;;;;;;5201830;28;20093;-69
2023/06/04 11:31:46;;;;;;;28.38;25.27;;;19.30;99.90;;;;;;5200875;28;20034;-69
2023/06/04 11:34:27;;;;;;;27.10;22.05;;;19.20;99.90;;;;;;5200878;28;20033;-69
2023/06/04 11:37:09;;;;;;;29.75;22.90;;;19.20;99.90;;;;;;5200961;28;20527;-69
2023/06/04 11:39:42;;;;;;;30.27;22.52;;;19.20;99.90;;;;;;5200243;28;20025;-69
2023/06/04 11:42:14;;;;;;;24.30;21.63;;;19.30;99.90;;;;;;5201334;28;20465;-68
2023/06/04 11:44:48;;;;;;;31.25;23.65;;;19.20;99.90;;;;;;5200303;28;20041;-69
2023/06/04 11:47:20;;;;;;;24.77;22.20;;;19.20;99.90;;;;;;5200385;28;20029;-69
2023/06/04 11:49:56;;;;;;;28.45;25.48;;;19.10;99.90;;;;;;5196789;28;20022;-70
2023/06/04 11:52:27;;;;;;;28.95;24.35;;;19.20;99.90;;;;;;5200136;28;20382;-69
2023/06/04 11:54:59;;;;;;;30.70;24.48;;;19.20;99.90;;;;;;5201456;28;20064;-69
2023/06/04 11:57:30;;;;;;;28.02;23.25;;;19.10;99.90;;;;;;5198765;28;20558;-69
2023/06/04 12:00:01;;;;;;;29.17;26.38;;;19.10;99.90;;;;;;5200883;28;20508;-68
2023/06/04 12:02:32;;;;;;;25.92;23.40;;;19.00;99.90;;;;;;5197610;28;20036;-70
2023/06/04 12:05:14;;;;;;;27.50;24.30;;;19.00;99.90;;;;;;5201134;28;20033;-69
2023/06/04 12:07:45;;;;;;;29.25;26.20;;;19.00;99.90;;;;;;5201001;28;20029;-69
2023/06/04 12:10:16;;;;;;;28.60;25.65;;;19.10;99.90;;;;;;5199953;28;20025;-69
2023/06/04 12:12:54;;;;;;;32.63;27.67;;;19.00;99.90;;;;;;5200204;28;20393;-69
2023/06/04 12:15:25;;;;;;;28.25;24.85;;;19.10;99.90;;;;;;5182401;28;20054;-69
2023/06/04 12:17:56;;;;;;;28.10;22.90;;;19.10;99.90;;;;;;5199533;28;20037;-69
2023/06/04 12:20:41;;;;;;;28.73;25.83;;;19.10;99.90;;;;;;5200013;28;20544;-69
2023/06/04 12:23:20;;;;;;;28.35;25.55;;;19.10;99.90;;;;;;5201013;28;20087;-69
2023/06/04 12:25:51;;;;;;;27.13;24.38;;;19.20;99.90;;;;;;5205399;28;20109;-69
2023/06/04 12:28:22;;;;;;;28.48;24.15;;;19.20;99.90;;;;;;5205321;28;20105;-69
2023/06/04 12:30:53;;;;;;;28.48;25.58;;;19.20;99.90;;;;;;5204805;28;20045;-68
2023/06/04 12:33:23;;;;;;;24.88;22.65;;;19.10;99.90;;;;;;5205270;28;20029;-69
2023/06/04 12:35:55;;;;;;;26.90;24.15;;;19.10;99.90;;;;;;5204990;28;20405;-69
2023/06/04 12:38:26;;;;;;;26.80;22.83;;;19.10;99.90;;;;;;5206628;28;20030;-69
2023/06/04 12:40:57;;;;;;;27.08;23.75;;;19.10;99.90;;;;;;5191250;28;20107;-70
2023/06/04 12:43:30;;;;;;;29.25;25.45;;;19.20;99.90;;;;;;5208819;28;20061;-69
2023/06/04 12:46:01;;;;;;;28.35;25.52;;;19.30;99.90;;;;;;5208206;28;20029;-70
2023/06/04 12:48:35;;;;;;;27.98;25.08;;;19.20;99.90;;;;;;5209180;28;20032;-70
2023/06/04 12:51:10;;;;;;;24.83;22.33;;;19.20;99.90;;;;;;5209158;28;20057;-69
2023/06/04 12:53:44;;;;;;;25.67;23.20;;;19.20;99.90;;;;;;5208910;28;20469;-70